sensor_id;sensor_type;location;lat;lon;timestamp;P1;durP1;ratioP1;P2;durP2;ratioP2
75645;SDS011;64237;52.438;13.240;2023-04-24T00:01:21;6.95;;;2.78;;
75645;SDS011;64237;52.438;13.240;2023-04-24T00:03:46;7.20;;;3.00;;
75645;SDS011;64237;52.438;13.240;2023-04-24T00:06:21;8.17;;;3.00;;
75645;SDS011;64237;52.438;13.240;2023-04-24T00:09:06;7.55;;;2.72;;
75645;SDS011;64237;52.438;13.240;2023-04-24T00:11:34;4.93;;;2.50;;
75645;SDS011;64237;52.438;13.240;2023-04-24T00:14:00;6.20;;;2.63;;
75645;SDS011;64237;52.438;13.240;2023-04-24T00:16:25;6.03;;;2.60;;
75645;SDS011;64237;52.438;13.240;2023-04-24T00:18:51;6.25;;;2.90;;
75645;SDS011;64237;52.438;13.240;2023-04-24T00:21:21;7.70;;;2.83;;
75645;SDS011;64237;52.438;13.240;2023-04-24T00:23:46;6.57;;;2.63;;
75645;SDS011;64237;52.438;13.240;2023-04-24T00:26:15;6.55;;;3.17;;
75645;SDS011;64237;52.438;13.240;2023-04-24T00:28:43;8.13;;;3.30;;
75645;SDS011;64237;52.438;13.240;2023-04-24T00:31:14;6.97;;;3.28;;
75645;SDS011;64237;52.438;13.240;2023-04-24T00:33:46;5.75;;;2.78;;
75645;SDS011;64237;52.438;13.240;2023-04-24T00:36:13;5.57;;;2.78;;
75645;SDS011;64237;52.438;13.240;2023-04-24T00:38:38;7.43;;;3.38;;
75645;SDS011;64237;52.438;13.240;2023-04-24T00:41:03;6.27;;;3.40;;
75645;SDS011;64237;52.438;13.240;2023-04-24T00:43:29;6.50;;;3.08;;
75645;SDS011;64237;52.438;13.240;2023-04-24T00:45:54;7.25;;;3.47;;
75645;SDS011;64237;52.438;13.240;2023-04-24T00:48:23;6.85;;;3.30;;
75645;SDS011;64237;52.438;13.240;2023-04-24T00:50:49;6.88;;;3.28;;
75645;SDS011;64237;52.438;13.240;2023-04-24T00:53:15;6.90;;;3.08;;
75645;SDS011;64237;52.438;13.240;2023-04-24T00:55:46;8.60;;;3.58;;
75645;SDS011;64237;52.438;13.240;2023-04-24T00:58:15;7.00;;;3.40;;
75645;SDS011;64237;52.438;13.240;2023-04-24T01:00:46;6.50;;;3.05;;
75645;SDS011;64237;52.438;13.240;2023-04-24T01:03:14;6.07;;;2.78;;
75645;SDS011;64237;52.438;13.240;2023-04-24T01:05:40;6.38;;;3.20;;
75645;SDS011;64237;52.438;13.240;2023-04-24T01:08:06;6.32;;;2.95;;
75645;SDS011;64237;52.438;13.240;2023-04-24T01:10:32;6.65;;;3.22;;
75645;SDS011;64237;52.438;13.240;2023-04-24T01:13:01;7.90;;;3.42;;
75645;SDS011;64237;52.438;13.240;2023-04-24T01:15:27;7.80;;;3.42;;
75645;SDS011;64237;52.438;13.240;2023-04-24T01:17:52;6.03;;;3.17;;
75645;SDS011;64237;52.438;13.240;2023-04-24T01:20:21;7.03;;;3.50;;
75645;SDS011;64237;52.438;13.240;2023-04-24T01:22:47;7.53;;;3.58;;
75645;SDS011;64237;52.438;13.240;2023-04-24T01:25:16;6.53;;;3.78;;
75645;SDS011;64237;52.438;13.240;2023-04-24T01:27:45;7.18;;;3.60;;
75645;SDS011;64237;52.438;13.240;2023-04-24T01:30:10;8.55;;;3.55;;
75645;SDS011;64237;52.438;13.240;2023-04-24T01:32:42;7.78;;;3.72;;
75645;SDS011;64237;52.438;13.240;2023-04-24T01:35:12;7.55;;;3.42;;
75645;SDS011;64237;52.438;13.240;2023-04-24T01:37:37;7.43;;;3.65;;
75645;SDS011;64237;52.438;13.240;2023-04-24T01:40:06;6.88;;;3.80;;
75645;SDS011;64237;52.438;13.240;2023-04-24T01:42:32;8.65;;;4.10;;
75645;SDS011;64237;52.438;13.240;2023-04-24T01:45:07;7.32;;;4.13;;
75645;SDS011;64237;52.438;13.240;2023-04-24T01:47:41;8.38;;;3.78;;
75645;SDS011;64237;52.438;13.240;2023-04-24T01:50:07;6.45;;;3.40;;
75645;SDS011;64237;52.438;13.240;2023-04-24T01:52:33;8.27;;;4.13;;
75645;SDS011;64237;52.438;13.240;2023-04-24T01:55:00;8.63;;;3.88;;
75645;SDS011;64237;52.438;13.240;2023-04-24T01:57:37;8.55;;;4.07;;
75645;SDS011;64237;52.438;13.240;2023-04-24T02:00:06;9.10;;;3.92;;
75645;SDS011;64237;52.438;13.240;2023-04-24T02:02:32;8.75;;;4.40;;
75645;SDS011;64237;52.438;13.240;2023-04-24T02:05:00;8.35;;;4.40;;
75645;SDS011;64237;52.438;13.240;2023-04-24T02:07:29;8.48;;;3.85;;
75645;SDS011;64237;52.438;13.240;2023-04-24T02:10:10;8.15;;;4.07;;
75645;SDS011;64237;52.438;13.240;2023-04-24T02:12:44;7.80;;;3.75;;
75645;SDS011;64237;52.438;13.240;2023-04-24T02:15:09;8.10;;;4.10;;
75645;SDS011;64237;52.438;13.240;2023-04-24T02:17:38;9.05;;;3.70;;
75645;SDS011;64237;52.438;13.240;2023-04-24T02:20:07;9.05;;;3.90;;
75645;SDS011;64237;52.438;13.240;2023-04-24T02:22:38;8.55;;;4.22;;
75645;SDS011;64237;52.438;13.240;2023-04-24T02:25:12;7.40;;;4.18;;
75645;SDS011;64237;52.438;13.240;2023-04-24T02:27:38;7.60;;;4.50;;
75645;SDS011;64237;52.438;13.240;2023-04-24T02:30:03;7.37;;;3.73;;
75645;SDS011;64237;52.438;13.240;2023-04-24T02:32:33;8.90;;;3.72;;
75645;SDS011;64237;52.438;13.240;2023-04-24T02:35:05;7.32;;;3.58;;
75645;SDS011;64237;52.438;13.240;2023-04-24T02:37:34;10.90;;;4.22;;
75645;SDS011;64237;52.438;13.240;2023-04-24T02:40:02;8.20;;;3.90;;
75645;SDS011;64237;52.438;13.240;2023-04-24T02:42:29;7.68;;;3.85;;
75645;SDS011;64237;52.438;13.240;2023-04-24T02:44:54;8.40;;;4.40;;
75645;SDS011;64237;52.438;13.240;2023-04-24T02:47:19;9.27;;;4.30;;
75645;SDS011;64237;52.438;13.240;2023-04-24T02:49:44;7.87;;;4.27;;
75645;SDS011;64237;52.438;13.240;2023-04-24T02:52:10;8.13;;;4.45;;
75645;SDS011;64237;52.438;13.240;2023-04-24T02:54:35;7.45;;;4.20;;
75645;SDS011;64237;52.438;13.240;2023-04-24T02:57:01;8.43;;;4.25;;
75645;SDS011;64237;52.438;13.240;2023-04-24T02:59:26;9.02;;;4.22;;
75645;SDS011;64237;52.438;13.240;2023-04-24T03:01:54;11.25;;;5.00;;
75645;SDS011;64237;52.438;13.240;2023-04-24T03:04:19;8.98;;;4.78;;
75645;SDS011;64237;52.438;13.240;2023-04-24T03:06:45;8.65;;;4.70;;
75645;SDS011;64237;52.438;13.240;2023-04-24T03:09:11;8.10;;;4.13;;
75645;SDS011;64237;52.438;13.240;2023-04-24T03:11:36;8.55;;;4.43;;
75645;SDS011;64237;52.438;13.240;2023-04-24T03:14:03;9.57;;;4.90;;
75645;SDS011;64237;52.438;13.240;2023-04-24T03:16:28;9.25;;;4.82;;
75645;SDS011;64237;52.438;13.240;2023-04-24T03:18:54;10.05;;;5.20;;
75645;SDS011;64237;52.438;13.240;2023-04-24T03:21:19;8.68;;;4.88;;
75645;SDS011;64237;52.438;13.240;2023-04-24T03:23:45;9.07;;;4.53;;
75645;SDS011;64237;52.438;13.240;2023-04-24T03:26:11;9.05;;;5.07;;
75645;SDS011;64237;52.438;13.240;2023-04-24T03:28:36;9.60;;;4.90;;
75645;SDS011;64237;52.438;13.240;2023-04-24T03:31:02;10.68;;;5.20;;
75645;SDS011;64237;52.438;13.240;2023-04-24T03:33:28;10.75;;;5.15;;
75645;SDS011;64237;52.438;13.240;2023-04-24T03:35:53;9.18;;;5.00;;
75645;SDS011;64237;52.438;13.240;2023-04-24T03:38:19;8.27;;;4.82;;
75645;SDS011;64237;52.438;13.240;2023-04-24T03:40:44;8.45;;;4.47;;
75645;SDS011;64237;52.438;13.240;2023-04-24T03:43:11;11.05;;;5.00;;
75645;SDS011;64237;52.438;13.240;2023-04-24T03:45:36;10.30;;;5.30;;
75645;SDS011;64237;52.438;13.240;2023-04-24T03:48:01;10.65;;;4.65;;
75645;SDS011;64237;52.438;13.240;2023-04-24T03:50:27;9.27;;;4.68;;
75645;SDS011;64237;52.438;13.240;2023-04-24T03:52:55;8.35;;;4.43;;
75645;SDS011;64237;52.438;13.240;2023-04-24T03:55:21;8.30;;;4.30;;
75645;SDS011;64237;52.438;13.240;2023-04-24T03:57:46;8.75;;;4.45;;
75645;SDS011;64237;52.438;13.240;2023-04-24T04:00:12;9.02;;;4.43;;
75645;SDS011;64237;52.438;13.240;2023-04-24T04:02:39;9.88;;;4.90;;
75645;SDS011;64237;52.438;13.240;2023-04-24T04:05:04;8.88;;;4.85;;
75645;SDS011;64237;52.438;13.240;2023-04-24T04:07:30;10.27;;;4.55;;
75645;SDS011;64237;52.438;13.240;2023-04-24T04:09:55;9.70;;;4.75;;
75645;SDS011;64237;52.438;13.240;2023-04-24T04:12:20;8.32;;;4.03;;
75645;SDS011;64237;52.438;13.240;2023-04-24T04:14:46;8.40;;;4.55;;
75645;SDS011;64237;52.438;13.240;2023-04-24T04:17:11;9.30;;;4.50;;
75645;SDS011;64237;52.438;13.240;2023-04-24T04:19:36;7.53;;;3.72;;
75645;SDS011;64237;52.438;13.240;2023-04-24T04:22:02;7.70;;;3.83;;
75645;SDS011;64237;52.438;13.240;2023-04-24T04:24:27;9.15;;;4.32;;
75645;SDS011;64237;52.438;13.240;2023-04-24T04:26:53;10.45;;;4.30;;
75645;SDS011;64237;52.438;13.240;2023-04-24T04:29:21;8.90;;;4.15;;
75645;SDS011;64237;52.438;13.240;2023-04-24T04:31:47;8.73;;;4.10;;
75645;SDS011;64237;52.438;13.240;2023-04-24T04:34:13;9.45;;;4.65;;
75645;SDS011;64237;52.438;13.240;2023-04-24T04:36:39;8.00;;;3.78;;
75645;SDS011;64237;52.438;13.240;2023-04-24T04:39:05;8.90;;;4.28;;
75645;SDS011;64237;52.438;13.240;2023-04-24T04:41:31;8.10;;;3.95;;
75645;SDS011;64237;52.438;13.240;2023-04-24T04:43:59;7.43;;;3.67;;
75645;SDS011;64237;52.438;13.240;2023-04-24T04:46:26;8.77;;;3.95;;
75645;SDS011;64237;52.438;13.240;2023-04-24T04:48:55;10.32;;;4.22;;
75645;SDS011;64237;52.438;13.240;2023-04-24T04:51:21;7.95;;;4.15;;
75645;SDS011;64237;52.438;13.240;2023-04-24T04:53:47;8.77;;;4.22;;
75645;SDS011;64237;52.438;13.240;2023-04-24T04:56:12;7.57;;;3.78;;
75645;SDS011;64237;52.438;13.240;2023-04-24T04:58:37;7.30;;;3.75;;
75645;SDS011;64237;52.438;13.240;2023-04-24T05:01:03;10.35;;;4.03;;
75645;SDS011;64237;52.438;13.240;2023-04-24T05:03:28;8.40;;;3.55;;
75645;SDS011;64237;52.438;13.240;2023-04-24T05:05:53;7.75;;;3.63;;
75645;SDS011;64237;52.438;13.240;2023-04-24T05:08:19;7.25;;;3.25;;
75645;SDS011;64237;52.438;13.240;2023-04-24T05:10:44;6.72;;;3.35;;
75645;SDS011;64237;52.438;13.240;2023-04-24T05:13:10;7.60;;;3.60;;
75645;SDS011;64237;52.438;13.240;2023-04-24T05:15:35;6.35;;;3.38;;
75645;SDS011;64237;52.438;13.240;2023-04-24T05:18:01;7.55;;;2.92;;
75645;SDS011;64237;52.438;13.240;2023-04-24T05:20:26;5.97;;;2.85;;
75645;SDS011;64237;52.438;13.240;2023-04-24T05:22:51;6.93;;;3.10;;
75645;SDS011;64237;52.438;13.240;2023-04-24T05:25:17;9.98;;;3.05;;
75645;SDS011;64237;52.438;13.240;2023-04-24T05:27:42;5.43;;;2.70;;
75645;SDS011;64237;52.438;13.240;2023-04-24T05:30:08;5.13;;;2.60;;
75645;SDS011;64237;52.438;13.240;2023-04-24T05:32:34;7.70;;;2.42;;
75645;SDS011;64237;52.438;13.240;2023-04-24T05:34:59;5.15;;;2.50;;
75645;SDS011;64237;52.438;13.240;2023-04-24T05:37:25;4.93;;;2.28;;
75645;SDS011;64237;52.438;13.240;2023-04-24T05:39:50;5.68;;;2.20;;
75645;SDS011;64237;52.438;13.240;2023-04-24T05:42:16;5.13;;;1.95;;
75645;SDS011;64237;52.438;13.240;2023-04-24T05:44:41;4.85;;;2.10;;
75645;SDS011;64237;52.438;13.240;2023-04-24T05:47:06;4.78;;;2.08;;
75645;SDS011;64237;52.438;13.240;2023-04-24T05:49:32;3.78;;;1.90;;
75645;SDS011;64237;52.438;13.240;2023-04-24T05:51:57;4.05;;;2.10;;
75645;SDS011;64237;52.438;13.240;2023-04-24T05:54:23;3.67;;;1.63;;
75645;SDS011;64237;52.438;13.240;2023-04-24T05:56:49;4.90;;;1.80;;
75645;SDS011;64237;52.438;13.240;2023-04-24T05:59:15;2.58;;;1.40;;
75645;SDS011;64237;52.438;13.240;2023-04-24T06:01:40;4.22;;;1.90;;
75645;SDS011;64237;52.438;13.240;2023-04-24T06:04:05;3.80;;;1.60;;
75645;SDS011;64237;52.438;13.240;2023-04-24T06:06:32;1.88;;;1.20;;
75645;SDS011;64237;52.438;13.240;2023-04-24T06:08:58;2.47;;;1.33;;
75645;SDS011;64237;52.438;13.240;2023-04-24T06:11:24;4.13;;;1.30;;
75645;SDS011;64237;52.438;13.240;2023-04-24T06:13:49;3.45;;;1.23;;
75645;SDS011;64237;52.438;13.240;2023-04-24T06:16:15;2.80;;;1.42;;
75645;SDS011;64237;52.438;13.240;2023-04-24T06:18:40;4.00;;;1.00;;
75645;SDS011;64237;52.438;13.240;2023-04-24T06:21:06;3.80;;;1.30;;
75645;SDS011;64237;52.438;13.240;2023-04-24T06:23:31;4.85;;;1.10;;
75645;SDS011;64237;52.438;13.240;2023-04-24T06:25:58;4.25;;;1.63;;
75645;SDS011;64237;52.438;13.240;2023-04-24T06:28:24;3.35;;;1.30;;
75645;SDS011;64237;52.438;13.240;2023-04-24T06:30:49;3.50;;;1.20;;
75645;SDS011;64237;52.438;13.240;2023-04-24T06:33:15;2.95;;;1.20;;
75645;SDS011;64237;52.438;13.240;2023-04-24T06:35:41;1.55;;;0.90;;
75645;SDS011;64237;52.438;13.240;2023-04-24T06:38:06;2.10;;;1.00;;
75645;SDS011;64237;52.438;13.240;2023-04-24T06:40:32;1.70;;;1.00;;
75645;SDS011;64237;52.438;13.240;2023-04-24T06:42:58;2.30;;;1.00;;
75645;SDS011;64237;52.438;13.240;2023-04-24T06:45:25;1.25;;;0.80;;
75645;SDS011;64237;52.438;13.240;2023-04-24T06:47:50;2.75;;;0.80;;
75645;SDS011;64237;52.438;13.240;2023-04-24T06:50:16;1.77;;;0.80;;
75645;SDS011;64237;52.438;13.240;2023-04-24T06:52:41;1.92;;;1.10;;
75645;SDS011;64237;52.438;13.240;2023-04-24T06:55:07;1.10;;;0.80;;
75645;SDS011;64237;52.438;13.240;2023-04-24T06:57:33;0.73;;;0.60;;
75645;SDS011;64237;52.438;13.240;2023-04-24T06:59:58;1.25;;;0.80;;
75645;SDS011;64237;52.438;13.240;2023-04-24T07:02:24;1.77;;;0.80;;
75645;SDS011;64237;52.438;13.240;2023-04-24T07:04:49;1.15;;;0.73;;
75645;SDS011;64237;52.438;13.240;2023-04-24T07:07:15;1.02;;;0.73;;
75645;SDS011;64237;52.438;13.240;2023-04-24T07:09:41;3.72;;;0.77;;
75645;SDS011;64237;52.438;13.240;2023-04-24T07:12:07;1.35;;;0.70;;
75645;SDS011;64237;52.438;13.240;2023-04-24T07:14:35;1.55;;;0.70;;
75645;SDS011;64237;52.438;13.240;2023-04-24T07:17:01;1.42;;;0.70;;
75645;SDS011;64237;52.438;13.240;2023-04-24T07:19:27;0.52;;;0.52;;
75645;SDS011;64237;52.438;13.240;2023-04-24T07:21:53;2.92;;;0.90;;
75645;SDS011;64237;52.438;13.240;2023-04-24T07:24:20;2.40;;;0.77;;
75645;SDS011;64237;52.438;13.240;2023-04-24T07:26:45;0.82;;;0.50;;
75645;SDS011;64237;52.438;13.240;2023-04-24T07:29:11;0.50;;;0.50;;
75645;SDS011;64237;52.438;13.240;2023-04-24T07:31:37;1.33;;;0.57;;
75645;SDS011;64237;52.438;13.240;2023-04-24T07:34:03;2.95;;;0.60;;
75645;SDS011;64237;52.438;13.240;2023-04-24T07:36:29;1.27;;;0.50;;
75645;SDS011;64237;52.438;13.240;2023-04-24T07:38:54;3.13;;;0.70;;
75645;SDS011;64237;52.438;13.240;2023-04-24T07:41:21;1.92;;;0.50;;
75645;SDS011;64237;52.438;13.240;2023-04-24T07:43:47;1.10;;;0.50;;
75645;SDS011;64237;52.438;13.240;2023-04-24T07:46:13;2.97;;;0.63;;
75645;SDS011;64237;52.438;13.240;2023-04-24T07:48:38;1.92;;;0.55;;
75645;SDS011;64237;52.438;13.240;2023-04-24T07:51:03;0.70;;;0.50;;
75645;SDS011;64237;52.438;13.240;2023-04-24T07:53:29;0.95;;;0.52;;
75645;SDS011;64237;52.438;13.240;2023-04-24T07:55:55;0.60;;;0.50;;
75645;SDS011;64237;52.438;13.240;2023-04-24T07:58:21;0.40;;;0.40;;
75645;SDS011;64237;52.438;13.240;2023-04-24T08:00:46;1.20;;;0.32;;
75645;SDS011;64237;52.438;13.240;2023-04-24T08:03:12;0.57;;;0.50;;
75645;SDS011;64237;52.438;13.240;2023-04-24T08:05:37;2.35;;;0.43;;
75645;SDS011;64237;52.438;13.240;2023-04-24T08:08:03;2.55;;;0.45;;
75645;SDS011;64237;52.438;13.240;2023-04-24T08:10:28;1.95;;;0.45;;
75645;SDS011;64237;52.438;13.240;2023-04-24T08:12:54;1.38;;;0.52;;
75645;SDS011;64237;52.438;13.240;2023-04-24T08:15:21;2.15;;;0.47;;
75645;SDS011;64237;52.438;13.240;2023-04-24T08:17:46;0.75;;;0.45;;
75645;SDS011;64237;52.438;13.240;2023-04-24T08:20:12;1.00;;;0.40;;
75645;SDS011;64237;52.438;13.240;2023-04-24T08:22:40;1.10;;;0.28;;
75645;SDS011;64237;52.438;13.240;2023-04-24T08:25:07;0.40;;;0.40;;
75645;SDS011;64237;52.438;13.240;2023-04-24T08:27:33;1.52;;;0.45;;
75645;SDS011;64237;52.438;13.240;2023-04-24T08:29:59;1.75;;;0.50;;
75645;SDS011;64237;52.438;13.240;2023-04-24T08:32:25;4.35;;;0.70;;
75645;SDS011;64237;52.438;13.240;2023-04-24T08:37:21;1.98;;;0.50;;
75645;SDS011;64237;52.438;13.240;2023-04-24T08:39:46;0.65;;;0.40;;
75645;SDS011;64237;52.438;13.240;2023-04-24T08:42:11;1.37;;;1.20;;
75645;SDS011;64237;52.438;13.240;2023-04-24T08:44:39;4.10;;;0.50;;
75645;SDS011;64237;52.438;13.240;2023-04-24T08:47:05;0.45;;;0.43;;
75645;SDS011;64237;52.438;13.240;2023-04-24T08:49:33;1.20;;;0.60;;
75645;SDS011;64237;52.438;13.240;2023-04-24T08:52:01;2.38;;;0.70;;
75645;SDS011;64237;52.438;13.240;2023-04-24T08:54:27;1.33;;;0.60;;
75645;SDS011;64237;52.438;13.240;2023-04-24T08:56:53;1.65;;;0.70;;
75645;SDS011;64237;52.438;13.240;2023-04-24T08:59:25;2.70;;;0.70;;
75645;SDS011;64237;52.438;13.240;2023-04-24T09:01:51;1.35;;;0.50;;
75645;SDS011;64237;52.438;13.240;2023-04-24T09:04:17;0.75;;;0.60;;
75645;SDS011;64237;52.438;13.240;2023-04-24T09:06:44;1.73;;;0.70;;
75645;SDS011;64237;52.438;13.240;2023-04-24T09:09:11;1.33;;;0.90;;
75645;SDS011;64237;52.438;13.240;2023-04-24T09:11:36;1.02;;;0.50;;
75645;SDS011;64237;52.438;13.240;2023-04-24T09:14:02;1.08;;;0.63;;
75645;SDS011;64237;52.438;13.240;2023-04-24T09:16:28;1.30;;;0.70;;
75645;SDS011;64237;52.438;13.240;2023-04-24T09:18:54;3.22;;;0.60;;
75645;SDS011;64237;52.438;13.240;2023-04-24T09:21:21;1.85;;;0.70;;
75645;SDS011;64237;52.438;13.240;2023-04-24T09:23:57;3.55;;;0.70;;
75645;SDS011;64237;52.438;13.240;2023-04-24T09:26:24;1.83;;;0.75;;
75645;SDS011;64237;52.438;13.240;2023-04-24T09:28:50;2.63;;;0.70;;
75645;SDS011;64237;52.438;13.240;2023-04-24T09:31:17;1.30;;;0.70;;
75645;SDS011;64237;52.438;13.240;2023-04-24T09:38:57;3.83;;;0.68;;
75645;SDS011;64237;52.438;13.240;2023-04-24T09:41:23;0.70;;;0.60;;
75645;SDS011;64237;52.438;13.240;2023-04-24T09:43:49;0.70;;;0.60;;
75645;SDS011;64237;52.438;13.240;2023-04-24T09:46:14;1.95;;;0.80;;
75645;SDS011;64237;52.438;13.240;2023-04-24T09:51:09;1.80;;;0.60;;
75645;SDS011;64237;52.438;13.240;2023-04-24T09:53:37;1.73;;;0.70;;
75645;SDS011;64237;52.438;13.240;2023-04-24T09:56:07;1.23;;;0.50;;
75645;SDS011;64237;52.438;13.240;2023-04-24T09:58:34;1.40;;;0.50;;
75645;SDS011;64237;52.438;13.240;2023-04-24T10:01:03;0.77;;;0.50;;
75645;SDS011;64237;52.438;13.240;2023-04-24T10:03:32;1.58;;;0.80;;
75645;SDS011;64237;52.438;13.240;2023-04-24T10:06:01;2.25;;;0.60;;
75645;SDS011;64237;52.438;13.240;2023-04-24T10:08:34;1.17;;;0.70;;
75645;SDS011;64237;52.438;13.240;2023-04-24T10:11:00;1.90;;;0.50;;
75645;SDS011;64237;52.438;13.240;2023-04-24T10:13:26;3.17;;;0.93;;
75645;SDS011;64237;52.438;13.240;2023-04-24T10:15:53;1.45;;;0.60;;
75645;SDS011;64237;52.438;13.240;2023-04-24T10:18:19;2.55;;;0.63;;
75645;SDS011;64237;52.438;13.240;2023-04-24T10:20:46;1.85;;;0.73;;
75645;SDS011;64237;52.438;13.240;2023-04-24T10:23:11;2.00;;;0.68;;
75645;SDS011;64237;52.438;13.240;2023-04-24T10:25:37;4.28;;;0.68;;
75645;SDS011;64237;52.438;13.240;2023-04-24T10:28:03;1.17;;;0.60;;
75645;SDS011;64237;52.438;13.240;2023-04-24T10:30:30;2.03;;;0.60;;
75645;SDS011;64237;52.438;13.240;2023-04-24T10:33:00;2.88;;;0.70;;
75645;SDS011;64237;52.438;13.240;2023-04-24T10:35:26;0.93;;;0.60;;
75645;SDS011;64237;52.438;13.240;2023-04-24T10:37:56;2.80;;;0.80;;
75645;SDS011;64237;52.438;13.240;2023-04-24T10:40:31;1.98;;;0.80;;
75645;SDS011;64237;52.438;13.240;2023-04-24T10:42:58;5.55;;;0.70;;
75645;SDS011;64237;52.438;13.240;2023-04-24T10:45:24;2.70;;;0.70;;
75645;SDS011;64237;52.438;13.240;2023-04-24T10:48:11;2.25;;;0.57;;
75645;SDS011;64237;52.438;13.240;2023-04-24T10:50:42;0.77;;;0.70;;
75645;SDS011;64237;52.438;13.240;2023-04-24T10:53:11;0.57;;;0.50;;
75645;SDS011;64237;52.438;13.240;2023-04-24T10:55:48;0.77;;;0.60;;
75645;SDS011;64237;52.438;13.240;2023-04-24T10:58:16;0.40;;;0.40;;
75645;SDS011;64237;52.438;13.240;2023-04-24T11:00:56;2.92;;;0.73;;
75645;SDS011;64237;52.438;13.240;2023-04-24T11:03:24;0.70;;;0.50;;
75645;SDS011;64237;52.438;13.240;2023-04-24T11:06:06;0.77;;;0.70;;
75645;SDS011;64237;52.438;13.240;2023-04-24T11:08:38;3.05;;;0.65;;
75645;SDS011;64237;52.438;13.240;2023-04-24T11:11:14;1.63;;;0.60;;
75645;SDS011;64237;52.438;13.240;2023-04-24T11:16:35;2.35;;;0.60;;
75645;SDS011;64237;52.438;13.240;2023-04-24T11:19:05;0.90;;;0.60;;
75645;SDS011;64237;52.438;13.240;2023-04-24T11:21:31;0.93;;;0.63;;
75645;SDS011;64237;52.438;13.240;2023-04-24T11:26:47;1.02;;;0.52;;
75645;SDS011;64237;52.438;13.240;2023-04-24T11:29:13;1.55;;;0.60;;
75645;SDS011;64237;52.438;13.240;2023-04-24T11:31:40;1.20;;;0.57;;
75645;SDS011;64237;52.438;13.240;2023-04-24T11:34:10;1.17;;;0.63;;
75645;SDS011;64237;52.438;13.240;2023-04-24T11:36:38;1.83;;;0.60;;
75645;SDS011;64237;52.438;13.240;2023-04-24T11:39:04;3.63;;;0.90;;
75645;SDS011;64237;52.438;13.240;2023-04-24T11:41:30;4.22;;;0.70;;
75645;SDS011;64237;52.438;13.240;2023-04-24T11:43:59;1.67;;;0.80;;
75645;SDS011;64237;52.438;13.240;2023-04-24T11:46:30;2.20;;;0.70;;
75645;SDS011;64237;52.438;13.240;2023-04-24T11:48:56;1.67;;;0.70;;
75645;SDS011;64237;52.438;13.240;2023-04-24T11:51:23;1.35;;;0.77;;
75645;SDS011;64237;52.438;13.240;2023-04-24T11:53:50;1.90;;;0.70;;
75645;SDS011;64237;52.438;13.240;2023-04-24T11:56:21;1.30;;;0.77;;
75645;SDS011;64237;52.438;13.240;2023-04-24T11:58:47;1.52;;;0.77;;
75645;SDS011;64237;52.438;13.240;2023-04-24T12:01:13;0.85;;;0.50;;
75645;SDS011;64237;52.438;13.240;2023-04-24T12:03:41;2.03;;;0.60;;
75645;SDS011;64237;52.438;13.240;2023-04-24T12:06:09;1.90;;;0.60;;
75645;SDS011;64237;52.438;13.240;2023-04-24T12:08:36;0.60;;;0.60;;
75645;SDS011;64237;52.438;13.240;2023-04-24T12:11:03;0.85;;;0.50;;
75645;SDS011;64237;52.438;13.240;2023-04-24T12:13:32;1.95;;;0.68;;
75645;SDS011;64237;52.438;13.240;2023-04-24T12:15:58;0.98;;;0.52;;
75645;SDS011;64237;52.438;13.240;2023-04-24T12:18:24;4.10;;;0.57;;
75645;SDS011;64237;52.438;13.240;2023-04-24T12:20:50;1.85;;;0.50;;
75645;SDS011;64237;52.438;13.240;2023-04-24T12:23:16;1.45;;;0.70;;
75645;SDS011;64237;52.438;13.240;2023-04-24T12:25:59;0.43;;;0.35;;
75645;SDS011;64237;52.438;13.240;2023-04-24T12:28:34;0.28;;;0.28;;
75645;SDS011;64237;52.438;13.240;2023-04-24T12:31:01;1.40;;;0.50;;
75645;SDS011;64237;52.438;13.240;2023-04-24T12:33:27;1.15;;;0.30;;
75645;SDS011;64237;52.438;13.240;2023-04-24T12:35:53;1.23;;;0.70;;
75645;SDS011;64237;52.438;13.240;2023-04-24T12:38:21;3.42;;;0.50;;
75645;SDS011;64237;52.438;13.240;2023-04-24T12:41:00;0.95;;;0.52;;
75645;SDS011;64237;52.438;13.240;2023-04-24T12:43:30;1.17;;;0.52;;
75645;SDS011;64237;52.438;13.240;2023-04-24T12:45:56;3.50;;;0.60;;
75645;SDS011;64237;52.438;13.240;2023-04-24T12:48:22;3.78;;;0.60;;
75645;SDS011;64237;52.438;13.240;2023-04-24T12:50:48;1.27;;;0.50;;
75645;SDS011;64237;52.438;13.240;2023-04-24T12:53:15;0.63;;;0.50;;
75645;SDS011;64237;52.438;13.240;2023-04-24T12:55:41;0.77;;;0.50;;
75645;SDS011;64237;52.438;13.240;2023-04-24T12:58:07;0.60;;;0.55;;
75645;SDS011;64237;52.438;13.240;2023-04-24T13:00:32;1.55;;;0.52;;
75645;SDS011;64237;52.438;13.240;2023-04-24T13:02:59;1.10;;;0.60;;
75645;SDS011;64237;52.438;13.240;2023-04-24T13:05:24;0.93;;;0.55;;
75645;SDS011;64237;52.438;13.240;2023-04-24T13:07:50;1.35;;;0.47;;
75645;SDS011;64237;52.438;13.240;2023-04-24T13:10:15;0.60;;;0.60;;
75645;SDS011;64237;52.438;13.240;2023-04-24T13:12:40;0.98;;;0.40;;
75645;SDS011;64237;52.438;13.240;2023-04-24T13:15:06;2.35;;;0.50;;
75645;SDS011;64237;52.438;13.240;2023-04-24T13:17:32;0.50;;;0.40;;
75645;SDS011;64237;52.438;13.240;2023-04-24T13:19:58;1.27;;;0.57;;
75645;SDS011;64237;52.438;13.240;2023-04-24T13:22:23;0.40;;;0.40;;
75645;SDS011;64237;52.438;13.240;2023-04-24T13:24:49;1.60;;;0.50;;
75645;SDS011;64237;52.438;13.240;2023-04-24T13:27:15;0.73;;;0.60;;
75645;SDS011;64237;52.438;13.240;2023-04-24T13:29:41;1.50;;;0.50;;
75645;SDS011;64237;52.438;13.240;2023-04-24T13:32:07;2.28;;;0.60;;
75645;SDS011;64237;52.438;13.240;2023-04-24T13:34:34;1.02;;;0.50;;
75645;SDS011;64237;52.438;13.240;2023-04-24T13:37:00;0.63;;;0.47;;
75645;SDS011;64237;52.438;13.240;2023-04-24T13:39:26;0.88;;;0.45;;
75645;SDS011;64237;52.438;13.240;2023-04-24T13:41:52;2.42;;;0.50;;
75645;SDS011;64237;52.438;13.240;2023-04-24T13:44:18;0.45;;;0.45;;
75645;SDS011;64237;52.438;13.240;2023-04-24T13:46:46;2.67;;;0.60;;
75645;SDS011;64237;52.438;13.240;2023-04-24T13:49:13;0.80;;;0.40;;
75645;SDS011;64237;52.438;13.240;2023-04-24T13:51:40;1.27;;;0.50;;
75645;SDS011;64237;52.438;13.240;2023-04-24T13:54:06;0.55;;;0.50;;
75645;SDS011;64237;52.438;13.240;2023-04-24T13:56:31;1.50;;;0.43;;
75645;SDS011;64237;52.438;13.240;2023-04-24T13:58:57;1.15;;;0.70;;
75645;SDS011;64237;52.438;13.240;2023-04-24T14:01:24;2.42;;;0.50;;
75645;SDS011;64237;52.438;13.240;2023-04-24T14:03:53;2.55;;;0.40;;
75645;SDS011;64237;52.438;13.240;2023-04-24T14:06:20;0.80;;;0.60;;
75645;SDS011;64237;52.438;13.240;2023-04-24T14:08:46;2.45;;;0.82;;
75645;SDS011;64237;52.438;13.240;2023-04-24T14:11:12;0.60;;;0.60;;
75645;SDS011;64237;52.438;13.240;2023-04-24T14:13:37;2.40;;;0.90;;
75645;SDS011;64237;52.438;13.240;2023-04-24T14:16:04;1.05;;;0.57;;
75645;SDS011;64237;52.438;13.240;2023-04-24T14:18:31;0.57;;;0.50;;
75645;SDS011;64237;52.438;13.240;2023-04-24T14:20:56;2.05;;;0.50;;
75645;SDS011;64237;52.438;13.240;2023-04-24T14:23:21;1.92;;;0.68;;
75645;SDS011;64237;52.438;13.240;2023-04-24T14:25:47;1.17;;;0.52;;
75645;SDS011;64237;52.438;13.240;2023-04-24T14:28:15;0.85;;;0.70;;
75645;SDS011;64237;52.438;13.240;2023-04-24T14:30:42;1.23;;;0.70;;
75645;SDS011;64237;52.438;13.240;2023-04-24T14:33:07;2.20;;;0.70;;
75645;SDS011;64237;52.438;13.240;2023-04-24T14:35:33;1.17;;;0.63;;
75645;SDS011;64237;52.438;13.240;2023-04-24T14:38:00;1.55;;;0.90;;
75645;SDS011;64237;52.438;13.240;2023-04-24T14:40:25;2.47;;;0.60;;
75645;SDS011;64237;52.438;13.240;2023-04-24T14:42:51;1.25;;;0.70;;
75645;SDS011;64237;52.438;13.240;2023-04-24T14:45:18;2.25;;;0.70;;
75645;SDS011;64237;52.438;13.240;2023-04-24T14:47:44;1.20;;;0.60;;